sensor_id;sensor_type;location;lat;lon;timestamp;pressure;altitude;pressure_sealevel;temperature;humidity
51259;BME280;37327;54.254;18.504;2022-12-07T00:01:11;100141.79;;;1.18;100.00
51259;BME280;37327;54.254;18.504;2022-12-07T00:04:18;100131.16;;;1.18;100.00
51259;BME280;37327;54.254;18.504;2022-12-07T00:07:26;100136.48;;;1.18;100.00
51259;BME280;37327;54.254;18.504;2022-12-07T00:10:37;100132.85;;;1.20;100.00
51259;BME280;37327;54.254;18.504;2022-12-07T00:14:14;100131.87;;;1.21;100.00
51259;BME280;37327;54.254;18.504;2022-12-07T00:17:22;100125.59;;;1.22;100.00
51259;BME280;37327;54.254;18.504;2022-12-07T00:20:28;100119.41;;;1.21;100.00
51259;BME280;37327;54.254;18.504;2022-12-07T00:23:39;100112.55;;;1.18;100.00
51259;BME280;37327;54.254;18.504;2022-12-07T00:26:46;100113.38;;;1.19;100.00
51259;BME280;37327;54.254;18.504;2022-12-07T00:29:52;100116.03;;;1.19;100.00
51259;BME280;37327;54.254;18.504;2022-12-07T00:33:24;100110.01;;;1.17;100.00
51259;BME280;37327;54.254;18.504;2022-12-07T00:36:31;100111.70;;;1.18;100.00
51259;BME280;37327;54.254;18.504;2022-12-07T00:39:38;100107.23;;;1.18;100.00
51259;BME280;37327;54.254;18.504;2022-12-07T00:42:45;100115.20;;;1.18;100.00
51259;BME280;37327;54.254;18.504;2022-12-07T00:45:53;100122.22;;;1.20;100.00
51259;BME280;37327;54.254;18.504;2022-12-07T00:49:00;100113.25;;;1.21;100.00
51259;BME280;37327;54.254;18.504;2022-12-07T00:52:34;100099.83;;;1.22;100.00
51259;BME280;37327;54.254;18.504;2022-12-07T00:55:42;100097.30;;;1.21;100.00
51259;BME280;37327;54.254;18.504;2022-12-07T00:59:00;100104.31;;;1.22;100.00
51259;BME280;37327;54.254;18.504;2022-12-07T01:02:07;100101.53;;;1.23;100.00
51259;BME280;37327;54.254;18.504;2022-12-07T01:05:14;100098.87;;;1.23;100.00
51259;BME280;37327;54.254;18.504;2022-12-07T01:08:48;100099.70;;;1.24;100.00
51259;BME280;37327;54.254;18.504;2022-12-07T01:11:55;100086.41;;;1.24;100.00
51259;BME280;37327;54.254;18.504;2022-12-07T01:15:02;100090.90;;;1.23;100.00
51259;BME280;37327;54.254;18.504;2022-12-07T01:18:08;100073.37;;;1.21;100.00
51259;BME280;37327;54.254;18.504;2022-12-07T01:21:21;100081.34;;;1.21;100.00
51259;BME280;37327;54.254;18.504;2022-12-07T01:24:28;100077.97;;;1.18;100.00
51259;BME280;37327;54.254;18.504;2022-12-07T01:28:00;100072.41;;;1.22;100.00
51259;BME280;37327;54.254;18.504;2022-12-07T01:31:12;100060.06;;;1.21;100.00
51259;BME280;37327;54.254;18.504;2022-12-07T01:34:22;100059.95;;;1.22;100.00
51259;BME280;37327;54.254;18.504;2022-12-07T01:37:37;100053.80;;;1.22;100.00
51259;BME280;37327;54.254;18.504;2022-12-07T01:40:44;100056.45;;;1.22;100.00
51259;BME280;37327;54.254;18.504;2022-12-07T01:44:20;100053.80;;;1.22;100.00
51259;BME280;37327;54.254;18.504;2022-12-07T01:47:27;100057.29;;;1.22;100.00
51259;BME280;37327;54.254;18.504;2022-12-07T01:50:35;100057.16;;;1.24;100.00
51259;BME280;37327;54.254;18.504;2022-12-07T01:53:45;100057.16;;;1.24;100.00
51259;BME280;37327;54.254;18.504;2022-12-07T01:56:54;100052.55;;;1.26;100.00
51259;BME280;37327;54.254;18.504;2022-12-07T02:00:31;100050.02;;;1.24;100.00
51259;BME280;37327;54.254;18.504;2022-12-07T02:03:40;100043.57;;;1.27;100.00
51259;BME280;37327;54.254;18.504;2022-12-07T02:06:48;100043.57;;;1.27;100.00
51259;BME280;37327;54.254;18.504;2022-12-07T02:09:57;100038.27;;;1.27;100.00
51259;BME280;37327;54.254;18.504;2022-12-07T02:13:16;100045.27;;;1.28;100.00
51259;BME280;37327;54.254;18.504;2022-12-07T02:17:00;100027.62;;;1.27;100.00
51259;BME280;37327;54.254;18.504;2022-12-07T02:27:57;100014.77;;;1.32;100.00
51259;BME280;37327;54.254;18.504;2022-12-07T02:30:33;100011.16;;;1.33;100.00
51259;BME280;37327;54.254;18.504;2022-12-07T02:33:49;100011.16;;;1.33;100.00
51259;BME280;37327;54.254;18.504;2022-12-07T02:37:06;100007.50;;;1.34;100.00
51259;BME280;37327;54.254;18.504;2022-12-07T02:40:48;100004.71;;;1.35;100.00
51259;BME280;37327;54.254;18.504;2022-12-07T02:43:59;99994.07;;;1.35;100.00
51259;BME280;37327;54.254;18.504;2022-12-07T02:47:10;99993.08;;;1.36;100.00
51259;BME280;37327;54.254;18.504;2022-12-07T02:50:21;99995.90;;;1.35;100.00
51259;BME280;37327;54.254;18.504;2022-12-07T02:53:36;99993.23;;;1.35;100.00
51259;BME280;37327;54.254;18.504;2022-12-07T02:57:21;99984.55;;;1.33;100.00
51259;BME280;37327;54.254;18.504;2022-12-07T03:00:27;99981.04;;;1.32;100.00
51259;BME280;37327;54.254;18.504;2022-12-07T03:03:35;99979.95;;;1.35;100.00
51259;BME280;37327;54.254;18.504;2022-12-07T03:06:53;99971.10;;;1.34;100.00
51259;BME280;37327;54.254;18.504;2022-12-07T03:10:35;99973.63;;;1.36;100.00
51259;BME280;37327;54.254;18.504;2022-12-07T03:13:54;99971.80;;;1.36;100.00
51259;BME280;37327;54.254;18.504;2022-12-07T03:17:13;99978.11;;;1.35;100.00
51259;BME280;37327;54.254;18.504;2022-12-07T03:20:48;99974.46;;;1.36;100.00
51259;BME280;37327;54.254;18.504;2022-12-07T03:23:59;99970.97;;;1.36;100.00
51259;BME280;37327;54.254;18.504;2022-12-07T03:27:22;99971.80;;;1.36;100.00
51259;BME280;37327;54.254;18.504;2022-12-07T03:30:31;99971.67;;;1.38;100.00
51259;BME280;37327;54.254;18.504;2022-12-07T03:40:55;99969.71;;;1.40;100.00
51259;BME280;37327;54.254;18.504;2022-12-07T03:44:24;99955.70;;;1.38;100.00
51259;BME280;37327;54.254;18.504;2022-12-07T03:47:40;99952.92;;;1.40;100.00
51259;BME280;37327;54.254;18.504;2022-12-07T03:50:59;99955.45;;;1.41;100.00
51259;BME280;37327;54.254;18.504;2022-12-07T03:57:51;99941.17;;;1.42;100.00
51259;BME280;37327;54.254;18.504;2022-12-07T04:01:00;99939.49;;;1.41;100.00
51259;BME280;37327;54.254;18.504;2022-12-07T04:04:07;99942.03;;;1.43;100.00
51259;BME280;37327;54.254;18.504;2022-12-07T04:07:14;99935.84;;;1.42;100.00
51259;BME280;37327;54.254;18.504;2022-12-07T04:10:21;99928.56;;;1.44;100.00
51259;BME280;37327;54.254;18.504;2022-12-07T04:13:28;99920.45;;;1.46;100.00
51259;BME280;37327;54.254;18.504;2022-12-07T04:17:01;99917.66;;;1.47;100.00
51259;BME280;37327;54.254;18.504;2022-12-07T04:20:09;99914.01;;;1.48;100.00
51259;BME280;37327;54.254;18.504;2022-12-07T04:23:17;99916.67;;;1.48;100.00
51259;BME280;37327;54.254;18.504;2022-12-07T04:26:24;99915.70;;;1.49;100.00
51259;BME280;37327;54.254;18.504;2022-12-07T04:29:33;99920.02;;;1.50;100.00
51259;BME280;37327;54.254;18.504;2022-12-07T04:32:40;99919.06;;;1.51;100.00
51259;BME280;37327;54.254;18.504;2022-12-07T04:36:12;99913.48;;;1.54;100.00
51259;BME280;37327;54.254;18.504;2022-12-07T04:39:26;99904.51;;;1.55;100.00
51259;BME280;37327;54.254;18.504;2022-12-07T04:42:33;99898.92;;;1.58;100.00
51259;BME280;37327;54.254;18.504;2022-12-07T04:45:46;99902.55;;;1.57;100.00
51259;BME280;37327;54.254;18.504;2022-12-07T04:48:53;99897.91;;;1.60;100.00
51259;BME280;37327;54.254;18.504;2022-12-07T04:52:26;99893.30;;;1.62;100.00
51259;BME280;37327;54.254;18.504;2022-12-07T04:55:32;99889.68;;;1.63;100.00
51259;BME280;37327;54.254;18.504;2022-12-07T04:58:41;99894.00;;;1.64;100.00
51259;BME280;37327;54.254;18.504;2022-12-07T05:01:48;99879.73;;;1.65;100.00
51259;BME280;37327;54.254;18.504;2022-12-07T05:04:55;99890.24;;;1.66;100.00
51259;BME280;37327;54.254;18.504;2022-12-07T05:08:02;99877.77;;;1.67;100.00
51259;BME280;37327;54.254;18.504;2022-12-07T05:11:35;99879.60;;;1.66;100.00
51259;BME280;37327;54.254;18.504;2022-12-07T05:14:45;99876.08;;;1.66;100.00
51259;BME280;37327;54.254;18.504;2022-12-07T05:17:53;99872.45;;;1.67;100.00
51259;BME280;37327;54.254;18.504;2022-12-07T05:21:00;99870.62;;;1.67;100.00
51259;BME280;37327;54.254;18.504;2022-12-07T05:24:09;99870.62;;;1.67;100.00
51259;BME280;37327;54.254;18.504;2022-12-07T05:27:17;99859.00;;;1.68;100.00
51259;BME280;37327;54.254;18.504;2022-12-07T05:30:49;99863.34;;;1.69;100.00
51259;BME280;37327;54.254;18.504;2022-12-07T05:33:55;99864.04;;;1.71;100.00
51259;BME280;37327;54.254;18.504;2022-12-07T05:37:02;99864.90;;;1.72;100.00
51259;BME280;37327;54.254;18.504;2022-12-07T05:40:10;99861.94;;;1.75;100.00
51259;BME280;37327;54.254;18.504;2022-12-07T05:43:18;99870.74;;;1.75;100.00
51259;BME280;37327;54.254;18.504;2022-12-07T05:46:25;99870.74;;;1.75;100.00
51259;BME280;37327;54.254;18.504;2022-12-07T05:49:58;99860.11;;;1.75;100.00
51259;BME280;37327;54.254;18.504;2022-12-07T05:53:05;99858.31;;;1.76;100.00
51259;BME280;37327;54.254;18.504;2022-12-07T05:56:13;99860.11;;;1.75;100.00
51259;BME280;37327;54.254;18.504;2022-12-07T05:59:21;99864.60;;;1.75;100.00
51259;BME280;37327;54.254;18.504;2022-12-07T06:02:33;99865.59;;;1.74;100.00
51259;BME280;37327;54.254;18.504;2022-12-07T06:05:40;99860.28;;;1.74;100.00
51259;BME280;37327;54.254;18.504;2022-12-07T06:09:14;99866.42;;;1.74;100.00
51259;BME280;37327;54.254;18.504;2022-12-07T06:12:21;99864.73;;;1.73;100.00
51259;BME280;37327;54.254;18.504;2022-12-07T06:15:40;99866.56;;;1.73;100.00
51259;BME280;37327;54.254;18.504;2022-12-07T06:18:47;99853.39;;;1.71;100.00
51259;BME280;37327;54.254;18.504;2022-12-07T06:21:54;99855.22;;;1.71;100.00
51259;BME280;37327;54.254;18.504;2022-12-07T06:25:27;99847.50;;;1.68;100.00
51259;BME280;37327;54.254;18.504;2022-12-07T06:28:34;99841.48;;;1.66;100.00
51259;BME280;37327;54.254;18.504;2022-12-07T06:31:41;99842.61;;;1.63;100.00
51259;BME280;37327;54.254;18.504;2022-12-07T06:34:48;99841.91;;;1.61;100.00
51259;BME280;37327;54.254;18.504;2022-12-07T06:37:57;99833.24;;;1.59;100.00
51259;BME280;37327;54.254;18.504;2022-12-07T06:41:04;99835.33;;;1.55;100.00
51259;BME280;37327;54.254;18.504;2022-12-07T06:44:37;99835.63;;;1.52;100.00
51259;BME280;37327;54.254;18.504;2022-12-07T06:47:44;99835.06;;;1.49;100.00
51259;BME280;37327;54.254;18.504;2022-12-07T06:50:50;99836.03;;;1.48;100.00
51259;BME280;37327;54.254;18.504;2022-12-07T06:53:57;99827.48;;;1.44;100.00
51259;BME280;37327;54.254;18.504;2022-12-07T06:57:05;99829.44;;;1.42;100.00
51259;BME280;37327;54.254;18.504;2022-12-07T07:00:12;99825.95;;;1.42;100.00
51259;BME280;37327;54.254;18.504;2022-12-07T07:03:46;99828.05;;;1.38;100.00
51259;BME280;37327;54.254;18.504;2022-12-07T07:06:53;99818.40;;;1.37;100.00
51259;BME280;37327;54.254;18.504;2022-12-07T07:09:59;99815.74;;;1.37;100.00
51259;BME280;37327;54.254;18.504;2022-12-07T07:13:07;99814.04;;;1.36;100.00
51259;BME280;37327;54.254;18.504;2022-12-07T07:16:14;99812.52;;;1.33;100.00
51259;BME280;37327;54.254;18.504;2022-12-07T07:19:21;99807.33;;;1.32;100.00
51259;BME280;37327;54.254;18.504;2022-12-07T07:22:54;99810.12;;;1.30;100.00
51259;BME280;37327;54.254;18.504;2022-12-07T07:26:02;99815.56;;;1.29;100.00
51259;BME280;37327;54.254;18.504;2022-12-07T07:29:09;99811.24;;;1.28;100.00
51259;BME280;37327;54.254;18.504;2022-12-07T07:32:16;99805.93;;;1.28;100.00
51259;BME280;37327;54.254;18.504;2022-12-07T07:35:22;99805.93;;;1.28;100.00
51259;BME280;37327;54.254;18.504;2022-12-07T07:38:31;99809.28;;;1.30;100.00
51259;BME280;37327;54.254;18.504;2022-12-07T07:42:04;99807.46;;;1.30;100.00
51259;BME280;37327;54.254;18.504;2022-12-07T07:45:10;99813.48;;;1.32;100.00
51259;BME280;37327;54.254;18.504;2022-12-07T07:48:18;99812.38;;;1.35;100.00
51259;BME280;37327;54.254;18.504;2022-12-07T07:51:25;99814.04;;;1.36;100.00
51259;BME280;37327;54.254;18.504;2022-12-07T07:54:31;99808.73;;;1.36;100.00
51259;BME280;37327;54.254;18.504;2022-12-07T07:57:39;99811.95;;;1.40;100.00
51259;BME280;37327;54.254;18.504;2022-12-07T08:01:14;99803.70;;;1.43;100.00
51259;BME280;37327;54.254;18.504;2022-12-07T08:04:22;99804.94;;;1.48;100.00
51259;BME280;37327;54.254;18.504;2022-12-07T08:07:29;99796.41;;;1.54;100.00
51259;BME280;37327;54.254;18.504;2022-12-07T08:10:35;99794.84;;;1.62;100.00
51259;BME280;37327;54.254;18.504;2022-12-07T08:13:45;99805.93;;;1.67;100.00
51259;BME280;37327;54.254;18.504;2022-12-07T08:16:55;99805.48;;;1.71;100.00
51259;BME280;37327;54.254;18.504;2022-12-07T08:20:30;99800.73;;;1.75;100.00
51259;BME280;37327;54.254;18.504;2022-12-07T08:23:37;99805.08;;;1.76;100.00
51259;BME280;37327;54.254;18.504;2022-12-07T08:26:45;99808.44;;;1.78;100.00
51259;BME280;37327;54.254;18.504;2022-12-07T08:29:52;99811.79;;;1.80;100.00
51259;BME280;37327;54.254;18.504;2022-12-07T08:32:59;99808.13;;;1.81;100.00
51259;BME280;37327;54.254;18.504;2022-12-07T08:36:09;99807.03;;;1.84;100.00
51259;BME280;37327;54.254;18.504;2022-12-07T08:39:41;99803.51;;;1.83;100.00
51259;BME280;37327;54.254;18.504;2022-12-07T08:42:49;99814.84;;;1.85;100.00
51259;BME280;37327;54.254;18.504;2022-12-07T08:46:08;99804.20;;;1.85;100.00
51259;BME280;37327;54.254;18.504;2022-12-07T08:49:28;99810.09;;;1.79;100.00
51259;BME280;37327;54.254;18.504;2022-12-07T08:53:03;99800.59;;;1.76;100.00
51259;BME280;37327;54.254;18.504;2022-12-07T08:56:11;99799.06;;;1.74;100.00
51259;BME280;37327;54.254;18.504;2022-12-07T08:59:18;99797.64;;;1.70;100.00
51259;BME280;37327;54.254;18.504;2022-12-07T09:02:26;99798.63;;;1.69;100.00
51259;BME280;37327;54.254;18.504;2022-12-07T09:05:35;99784.33;;;1.70;100.00
51259;BME280;37327;54.254;18.504;2022-12-07T09:08:47;99788.55;;;1.72;100.00
51259;BME280;37327;54.254;18.504;2022-12-07T09:12:20;99786.02;;;1.71;100.00
51259;BME280;37327;54.254;18.504;2022-12-07T09:15:30;99783.37;;;1.71;100.00
51259;BME280;37327;54.254;18.504;2022-12-07T09:18:38;99779.56;;;1.73;100.00
51259;BME280;37327;54.254;18.504;2022-12-07T09:21:46;99779.44;;;1.75;100.00
51259;BME280;37327;54.254;18.504;2022-12-07T09:24:52;99771.45;;;1.75;100.00
51259;BME280;37327;54.254;18.504;2022-12-07T09:28:01;99771.17;;;1.78;100.00
51259;BME280;37327;54.254;18.504;2022-12-07T09:31:35;99765.55;;;1.81;100.00
51259;BME280;37327;54.254;18.504;2022-12-07T09:34:43;99769.77;;;1.84;100.00
51259;BME280;37327;54.254;18.504;2022-12-07T09:37:50;99773.40;;;1.83;100.00
51259;BME280;37327;54.254;18.504;2022-12-07T09:40:57;99780.69;;;1.81;100.00
51259;BME280;37327;54.254;18.504;2022-12-07T09:44:06;99775.50;;;1.79;100.00
51259;BME280;37327;54.254;18.504;2022-12-07T09:47:14;99776.49;;;1.78;100.00
51259;BME280;37327;54.254;18.504;2022-12-07T09:50:48;99768.92;;;1.73;100.00
51259;BME280;37327;54.254;18.504;2022-12-07T09:53:58;99779.56;;;1.73;100.00
51259;BME280;37327;54.254;18.504;2022-12-07T09:57:05;99773.42;;;1.73;100.00
51259;BME280;37327;54.254;18.504;2022-12-07T10:00:17;99767.40;;;1.71;100.00
51259;BME280;37327;54.254;18.504;2022-12-07T10:03:26;99772.03;;;1.69;100.00
51259;BME280;37327;54.254;18.504;2022-12-07T10:07:01;99763.35;;;1.67;100.00
51259;BME280;37327;54.254;18.504;2022-12-07T10:10:13;99763.35;;;1.67;100.00
51259;BME280;37327;54.254;18.504;2022-12-07T10:13:33;99771.47;;;1.65;100.00
51259;BME280;37327;54.254;18.504;2022-12-07T10:16:40;99763.48;;;1.65;100.00
51259;BME280;37327;54.254;18.504;2022-12-07T10:19:48;99771.47;;;1.65;100.00
51259;BME280;37327;54.254;18.504;2022-12-07T10:23:20;99762.52;;;1.66;100.00
51259;BME280;37327;54.254;18.504;2022-12-07T10:26:34;99751.87;;;1.66;100.00
51259;BME280;37327;54.254;18.504;2022-12-07T10:29:50;99750.46;;;1.72;100.00
51259;BME280;37327;54.254;18.504;2022-12-07T10:32:58;99749.71;;;1.80;100.00
51259;BME280;37327;54.254;18.504;2022-12-07T10:36:20;99747.62;;;1.83;100.00
51259;BME280;37327;54.254;18.504;2022-12-07T10:39:55;99751.52;;;1.89;100.00
51259;BME280;37327;54.254;18.504;2022-12-07T10:46:29;99739.46;;;1.94;100.00
51259;BME280;37327;54.254;18.504;2022-12-07T10:49:52;99742.81;;;1.96;100.00
51259;BME280;37327;54.254;18.504;2022-12-07T11:03:37;99728.53;;;1.97;100.00
51259;BME280;37327;54.254;18.504;2022-12-07T11:18:32;99706.96;;;1.91;100.00
51259;BME280;37327;54.254;18.504;2022-12-07T11:24:20;99703.61;;;1.89;100.00
51259;BME280;37327;54.254;18.504;2022-12-07T11:28:06;99691.30;;;1.88;100.00
51259;BME280;37327;54.254;18.504;2022-12-07T11:31:23;99690.75;;;1.84;100.00
51259;BME280;37327;54.254;18.504;2022-12-07T11:38:26;99681.96;;;1.74;100.00
51259;BME280;37327;54.254;18.504;2022-12-07T11:41:35;99692.61;;;1.74;100.00
51259;BME280;37327;54.254;18.504;2022-12-07T11:51:49;99673.71;;;1.67;100.00
51259;BME280;37327;54.254;18.504;2022-12-07T11:55:03;99671.87;;;1.68;100.00
51259;BME280;37327;54.254;18.504;2022-12-07T12:05:23;99661.23;;;1.68;100.00
51259;BME280;37327;54.254;18.504;2022-12-07T12:08:35;99665.00;;;1.75;100.00
51259;BME280;37327;54.254;18.504;2022-12-07T12:22:15;99648.95;;;1.94;100.00
51259;BME280;37327;54.254;18.504;2022-12-07T12:25:29;99654.37;;;2.03;100.00
51259;BME280;37327;54.254;18.504;2022-12-07T12:35:46;99627.83;;;2.11;100.00
51259;BME280;37327;54.254;18.504;2022-12-07T12:42:48;99615.46;;;2.20;100.00
51259;BME280;37327;54.254;18.504;2022-12-07T13:03:30;99605.23;;;2.43;100.00
51259;BME280;37327;54.254;18.504;2022-12-07T13:06:41;99597.77;;;2.46;100.00
51259;BME280;37327;54.254;18.504;2022-12-07T13:09:50;99600.94;;;2.50;100.00
51259;BME280;37327;54.254;18.504;2022-12-07T13:13:01;99596.16;;;2.53;100.00
51259;BME280;37327;54.254;18.504;2022-12-07T13:19:54;99590.67;;;2.55;100.00
51259;BME280;37327;54.254;18.504;2022-12-07T13:23:03;99586.03;;;2.57;100.00
51259;BME280;37327;54.254;18.504;2022-12-07T13:26:19;99595.03;;;2.56;100.00
51259;BME280;37327;54.254;18.504;2022-12-07T13:29:26;99595.86;;;2.56;100.00
51259;BME280;37327;54.254;18.504;2022-12-07T13:32:34;99585.06;;;2.58;100.00
51259;BME280;37327;54.254;18.504;2022-12-07T13:36:19;99596.70;;;2.57;100.00
51259;BME280;37327;54.254;18.504;2022-12-07T13:39:28;99596.55;;;2.59;100.00
51259;BME280;37327;54.254;18.504;2022-12-07T13:42:35;99580.41;;;2.60;100.00
51259;BME280;37327;54.254;18.504;2022-12-07T13:45:43;99578.42;;;2.62;100.00
51259;BME280;37327;54.254;18.504;2022-12-07T13:49:24;99578.04;;;2.57;100.00
51259;BME280;37327;54.254;18.504;2022-12-07T13:52:32;99578.04;;;2.57;99.83
51259;BME280;37327;54.254;18.504;2022-12-07T13:55:46;99572.86;;;2.55;100.00
51259;BME280;37327;54.254;18.504;2022-12-07T13:58:53;99573.71;;;2.56;100.00
51259;BME280;37327;54.254;18.504;2022-12-07T14:02:00;99574.54;;;2.56;100.00
51259;BME280;37327;54.254;18.504;2022-12-07T14:05:35;99566.02;;;2.53;99.72
51259;BME280;37327;54.254;18.504;2022-12-07T14:08:44;99574.01;;;2.53;99.47
51259;BME280;37327;54.254;18.504;2022-12-07T14:11:56;99563.34;;;2.53;99.35
51259;BME280;37327;54.254;18.504;2022-12-07T14:15:04;99557.19;;;2.52;99.34
51259;BME280;37327;54.254;18.504;2022-12-07T14:25:20;99551.08;;;2.42;98.75
51259;BME280;37327;54.254;18.504;2022-12-07T14:28:35;99564.04;;;2.37;98.86
51259;BME280;37327;54.254;18.504;2022-12-07T14:31:44;99560.01;;;2.33;98.95
51259;BME280;37327;54.254;18.504;2022-12-07T14:35:18;99553.14;;;2.30;98.98
51259;BME280;37327;54.254;18.504;2022-12-07T14:38:26;99557.78;;;2.28;98.86
51259;BME280;37327;54.254;18.504;2022-12-07T14:41:34;99560.62;;;2.27;98.51
51259;BME280;37327;54.254;18.504;2022-12-07T14:44:53;99563.28;;;2.27;99.02
51259;BME280;37327;54.254;18.504;2022-12-07T14:48:00;99551.48;;;2.29;98.98
51259;BME280;37327;54.254;18.504;2022-12-07T14:51:33;99559.18;;;2.32;98.79
51259;BME280;37327;54.254;18.504;2022-12-07T14:54:42;99557.35;;;2.33;98.63
51259;BME280;37327;54.254;18.504;2022-12-07T14:57:49;99560.98;;;2.32;98.12
51259;BME280;37327;54.254;18.504;2022-12-07T15:00:55;99552.63;;;2.27;98.08
51259;BME280;37327;54.254;18.504;2022-12-07T15:04:02;99553.06;;;2.22;98.07
51259;BME280;37327;54.254;18.504;2022-12-07T15:07:18;99560.08;;;2.23;98.24
51259;BME280;37327;54.254;18.504;2022-12-07T15:10:51;99560.23;;;2.22;98.04
51259;BME280;37327;54.254;18.504;2022-12-07T15:13:59;99557.56;;;2.22;97.83
51259;BME280;37327;54.254;18.504;2022-12-07T15:17:15;99551.00;;;2.16;96.70
51259;BME280;37327;54.254;18.504;2022-12-07T15:20:21;99544.99;;;2.14;97.29
51259;BME280;37327;54.254;18.504;2022-12-07T15:23:28;99546.00;;;2.13;97.75
51259;BME280;37327;54.254;18.504;2022-12-07T15:26:35;99544.32;;;2.12;97.43
51259;BME280;37327;54.254;18.504;2022-12-07T15:30:08;99549.93;;;2.09;97.26
51259;BME280;37327;54.254;18.504;2022-12-07T15:33:14;99544.60;;;2.09;97.63
51259;BME280;37327;54.254;18.504;2022-12-07T15:36:23;99540.42;;;2.06;97.52
51259;BME280;37327;54.254;18.504;2022-12-07T15:39:31;99542.87;;;2.00;97.26
51259;BME280;37327;54.254;18.504;2022-12-07T15:42:38;99531.53;;;1.97;97.82
51259;BME280;37327;54.254;18.504;2022-12-07T15:45:49;99528.01;;;1.97;97.87
51259;BME280;37327;54.254;18.504;2022-12-07T15:49:22;99529.30;;;1.93;98.13
51259;BME280;37327;54.254;18.504;2022-12-07T15:52:28;99537.43;;;1.91;98.13
51259;BME280;37327;54.254;18.504;2022-12-07T15:55:38;99534.77;;;1.91;98.04
51259;BME280;37327;54.254;18.504;2022-12-07T15:58:46;99539.12;;;1.92;98.39
51259;BME280;37327;54.254;18.504;2022-12-07T16:01:53;99532.10;;;1.91;98.08
51259;BME280;37327;54.254;18.504;2022-12-07T16:05:00;99526.09;;;1.89;98.13
51259;BME280;37327;54.254;18.504;2022-12-07T16:08:32;99532.71;;;1.85;98.13
51259;BME280;37327;54.254;18.504;2022-12-07T16:11:40;99529.35;;;1.83;97.77
51259;BME280;37327;54.254;18.504;2022-12-07T16:14:46;99531.88;;;1.85;98.03
51259;BME280;37327;54.254;18.504;2022-12-07T16:17:53;99538.71;;;1.87;98.05
51259;BME280;37327;54.254;18.504;2022-12-07T16:21:01;99540.86;;;1.84;97.75
51259;BME280;37327;54.254;18.504;2022-12-07T16:24:08;99532.02;;;1.83;97.61
51259;BME280;37327;54.254;18.504;2022-12-07T16:27:41;99532.17;;;1.82;97.50
51259;BME280;37327;54.254;18.504;2022-12-07T16:30:48;99529.67;;;1.80;97.51
51259;BME280;37327;54.254;18.504;2022-12-07T16:33:57;99541.44;;;1.77;97.46
51259;BME280;37327;54.254;18.504;2022-12-07T16:37:04;99527.98;;;1.79;97.74
51259;BME280;37327;54.254;18.504;2022-12-07T16:40:12;99532.94;;;1.74;97.70
51259;BME280;37327;54.254;18.504;2022-12-07T16:43:19;99521.89;;;1.69;97.57
51259;BME280;37327;54.254;18.504;2022-12-07T16:46:52;99530.16;;;1.66;97.95
51259;BME280;37327;54.254;18.504;2022-12-07T16:50:01;99531.45;;;1.62;98.04
51259;BME280;37327;54.254;18.504;2022-12-07T16:53:09;99524.46;;;1.61;98.16
51259;BME280;37327;54.254;18.504;2022-12-07T16:56:16;99526.43;;;1.58;98.48
51259;BME280;37327;54.254;18.504;2022-12-07T16:59:24;99527.55;;;1.56;98.59
51259;BME280;37327;54.254;18.504;2022-12-07T17:02:33;99528.14;;;1.50;98.63
51259;BME280;37327;54.254;18.504;2022-12-07T17:09:22;99536.43;;;1.47;98.97
51259;BME280;37327;54.254;18.504;2022-12-07T17:12:29;99530.11;;;1.48;98.75
51259;BME280;37327;54.254;18.504;2022-12-07T17:15:36;99525.63;;;1.48;98.81
51259;BME280;37327;54.254;18.504;2022-12-07T17:18:43;99537.41;;;1.46;98.42
51259;BME280;37327;54.254;18.504;2022-12-07T17:22:18;99534.47;;;1.49;98.73
51259;BME280;37327;54.254;18.504;2022-12-07T17:25:25;99536.12;;;1.50;98.42
51259;BME280;37327;54.254;18.504;2022-12-07T17:28:33;99535.30;;;1.49;98.05
51259;BME280;37327;54.254;18.504;2022-12-07T17:31:40;99522.68;;;1.51;97.76
51259;BME280;37327;54.254;18.504;2022-12-07T17:34:47;99520.16;;;1.50;97.32
51259;BME280;37327;54.254;18.504;2022-12-07T17:37:54;99515.98;;;1.47;97.12
51259;BME280;37327;54.254;18.504;2022-12-07T17:41:28;99525.11;;;1.45;97.13
51259;BME280;37327;54.254;18.504;2022-12-07T17:44:47;99532.67;;;1.40;96.80
51259;BME280;37327;54.254;18.504;2022-12-07T17:47:54;99524.98;;;1.36;97.00
51259;BME280;37327;54.254;18.504;2022-12-07T17:51:01;99530.30;;;1.36;97.15
51259;BME280;37327;54.254;18.504;2022-12-07T17:54:44;99544.04;;;1.32;97.24
51259;BME280;37327;54.254;18.504;2022-12-07T17:57:51;99539.70;;;1.31;97.46
51259;BME280;37327;54.254;18.504;2022-12-07T18:00:58;99550.50;;;1.29;97.64
51259;BME280;37327;54.254;18.504;2022-12-07T18:04:05;99556.51;;;1.31;98.00
51259;BME280;37327;54.254;18.504;2022-12-07T18:07:13;99553.70;;;1.33;98.26
51259;BME280;37327;54.254;18.504;2022-12-07T18:14:22;99546.11;;;1.38;98.25
51259;BME280;37327;54.254;18.504;2022-12-07T18:17:29;99550.60;;;1.37;98.38
51259;BME280;37327;54.254;18.504;2022-12-07T18:20:36;99535.48;;;1.38;98.38
51259;BME280;37327;54.254;18.504;2022-12-07T18:23:44;99549.46;;;1.40;98.52
51259;BME280;37327;54.254;18.504;2022-12-07T18:26:51;99551.30;;;1.40;98.28
51259;BME280;37327;54.254;18.504;2022-12-07T18:30:02;99548.64;;;1.40;98.43
51259;BME280;37327;54.254;18.504;2022-12-07T18:33:33;99539.83;;;1.39;98.54
51259;BME280;37327;54.254;18.504;2022-12-07T18:36:42;99537.17;;;1.39;98.61
51259;BME280;37327;54.254;18.504;2022-12-07T18:39:51;99533.51;;;1.40;98.94
51259;BME280;37327;54.254;18.504;2022-12-07T18:42:58;99540.80;;;1.38;99.00
51259;BME280;37327;54.254;18.504;2022-12-07T18:46:14;99548.22;;;1.34;99.12
51259;BME280;37327;54.254;18.504;2022-12-07T18:49:51;99548.67;;;1.30;99.17
51259;BME280;37327;54.254;18.504;2022-12-07T18:53:00;99538.59;;;1.33;99.30